KLWV

Lawrenceville-Vincennes International Airport

Lawrenceville, Illinois, USA
METAR KLWV 212353Z AUTO 04009KT 5SM -RA BR OVC012 04/03 A3047 RMK AO2 SLP321 P0003 60016 T00390028 10044 20039 58002
Observed Flight Rules
Feb-21 @ 23:53 UTC (5 hours ago) Marginal Visual Flight Rules
Wind Visibility Clouds Conditions
40° at 9 knots 5 miles
  • Overcast at 1,200' AGL
  • Light Rain
  • Mist
Temperatures Readings Precipitation
Current 4°C / 39°F
Dewpoint 3°C / 37°F
Humidity 93%
Altimeter 30.47" Hg
Pressure 1032.1 hPa
Elevation 131
Current Rain 0.03
METAR KLWV 212353Z AUTO 04009KT 5SM -RA BR OVC012 04/03 A3047 RMK AO2 SLP321 P0003 60016 T00390028 10044 20039 58002
Observed Flight Rules
Feb-21 @ 23:53 UTC
(5 hours ago)
MVFR
Wind Visibility
40° at 9 knots 5 miles
Clouds
  • Overcast at 1,200' AGL
Conditions
  • Light Rain
  • Mist
Temperature Dewpoint
4°C / 39°F 3°C / 37°F
Humidity Altimeter Pressure
93% 30.47" Hg 1032.1 hPa
Current Rain
0.03